Time;durP1;ratioP1;P1;durP2;ratioP2;P2;SDS_P1;SDS_P2;PMS_P1;PMS_P2;Temp;Humidity;BMP_temperature;BMP_pressure;BME280_temperature;BME280_humidity;BME280_pressure;Samples;Min_cycle;Max_cycle;Signal;HPM_P1;HPM_P2
2023/08/29 00:01:36;;;;;;;1.13;1.10;;;21.90;61.00;;;;;;5074546;28;20218;-82
2023/08/29 00:04:04;;;;;;;1.33;1.23;;;21.80;61.00;;;;;;5074595;28;20199;-82
2023/08/29 00:06:31;;;;;;;1.30;1.20;;;21.80;61.10;;;;;;5074382;28;20327;-83
2023/08/29 00:08:59;;;;;;;1.40;1.25;;;21.90;61.20;;;;;;5074263;28;20207;-83
2023/08/29 00:11:27;;;;;;;1.10;1.10;;;21.90;62.00;;;;;;5057578;28;20222;-83
2023/08/29 00:13:54;;;;;;;1.20;1.20;;;21.80;61.10;;;;;;5073924;28;20285;-82
2023/08/29 00:16:21;;;;;;;1.23;1.15;;;21.80;61.10;;;;;;5073358;28;20727;-83
2023/08/29 00:18:48;;;;;;;1.40;1.30;;;21.80;61.10;;;;;;5074297;28;20277;-82
2023/08/29 00:21:15;;;;;;;1.55;1.45;;;21.80;61.20;;;;;;5075991;28;20214;-83
2023/08/29 00:23:42;;;;;;;2.13;1.30;;;21.80;61.20;;;;;;5058216;28;20206;-83
2023/08/29 00:26:10;;;;;;;1.10;1.10;;;21.80;61.20;;;;;;5040802;28;20684;-82
2023/08/29 00:28:37;;;;;;;1.20;1.20;;;21.80;61.20;;;;;;5074399;28;20240;-83
2023/08/29 00:31:05;;;;;;;1.38;1.27;;;21.80;61.20;;;;;;5073170;28;20219;-83
2023/08/29 00:33:32;;;;;;;1.17;1.17;;;21.70;61.10;;;;;;5073032;28;20661;-84
2023/08/29 00:35:59;;;;;;;1.48;1.38;;;21.80;61.20;;;;;;5073320;28;20199;-83
2023/08/29 00:38:27;;;;;;;1.40;1.30;;;21.80;61.30;;;;;;5073158;28;20218;-84
2023/08/29 00:40:54;;;;;;;1.40;1.30;;;21.80;61.30;;;;;;5072865;28;20218;-84
2023/08/29 00:43:22;;;;;;;1.75;1.38;;;21.80;61.30;;;;;;5073574;28;20209;-84
2023/08/29 00:45:49;;;;;;;2.03;1.20;;;21.80;61.30;;;;;;5072566;28;20205;-84
2023/08/29 00:48:16;;;;;;;1.40;1.30;;;21.80;61.40;;;;;;5072575;28;20613;-84
2023/08/29 00:50:43;;;;;;;1.30;1.20;;;21.80;61.40;;;;;;5072542;28;20693;-84
2023/08/29 00:53:13;;;;;;;1.20;1.10;;;21.80;61.40;;;;;;5073030;28;20202;-84
2023/08/29 00:55:41;;;;;;;1.40;1.30;;;21.80;61.40;;;;;;5073555;28;20194;-84
2023/08/29 00:58:07;;;;;;;1.17;1.17;;;21.80;61.40;;;;;;5072658;28;20243;-84
2023/08/29 01:00:36;;;;;;;1.10;1.10;;;21.70;62.10;;;;;;5072772;28;20233;-84
2023/08/29 01:03:03;;;;;;;1.10;1.10;;;21.80;61.40;;;;;;5072872;28;20256;-84
2023/08/29 01:05:30;;;;;;;1.15;1.15;;;21.70;61.40;;;;;;5072945;28;20239;-84
2023/08/29 01:07:59;;;;;;;1.20;1.10;;;21.70;61.40;;;;;;5072851;28;20680;-84
2023/08/29 01:10:32;;;;;;;1.25;1.15;;;21.80;61.50;;;;;;5073132;28;20215;-84
2023/08/29 01:13:02;;;;;;;1.00;1.00;;;21.70;61.40;;;;;;5073164;28;20198;-84
2023/08/29 01:15:30;;;;;;;1.13;1.13;;;21.70;61.40;;;;;;5074248;28;20205;-84
2023/08/29 01:18:01;;;;;;;1.42;1.33;;;21.70;61.40;;;;;;5077060;28;20317;-83
2023/08/29 01:20:28;;;;;;;1.20;1.10;;;21.70;61.40;;;;;;5076794;28;20236;-84
2023/08/29 01:22:58;;;;;;;1.20;1.20;;;21.70;61.40;;;;;;5076620;28;20689;-83
2023/08/29 01:25:27;;;;;;;1.15;1.15;;;21.70;61.40;;;;;;5076637;28;20194;-83
2023/08/29 01:27:57;;;;;;;1.70;1.08;;;21.70;61.40;;;;;;5077434;28;20237;-83
2023/08/29 01:30:24;;;;;;;1.10;1.10;;;21.70;61.40;;;;;;5077225;28;20261;-82
2023/08/29 01:32:51;;;;;;;1.30;1.20;;;21.70;61.40;;;;;;5076432;28;20202;-83
2023/08/29 01:35:18;;;;;;;2.08;1.25;;;21.70;61.40;;;;;;5076331;28;20202;-84
2023/08/29 01:37:45;;;;;;;1.40;1.30;;;21.70;61.40;;;;;;5060316;28;20210;-84
2023/08/29 01:40:12;;;;;;;1.40;1.30;;;21.60;61.30;;;;;;5076031;28;20721;-83
2023/08/29 01:42:39;;;;;;;1.83;1.30;;;21.70;61.40;;;;;;5059358;28;20561;-84
2023/08/29 01:45:09;;;;;;;1.40;1.30;;;21.70;61.60;;;;;;5076082;28;20226;-83
2023/08/29 01:47:36;;;;;;;1.10;1.10;;;21.70;61.50;;;;;;5075929;28;20190;-83
2023/08/29 01:50:04;;;;;;;1.58;1.10;;;21.70;61.50;;;;;;5075957;28;20195;-83
2023/08/29 01:52:31;;;;;;;1.27;1.25;;;21.70;61.50;;;;;;5076660;28;20289;-82
2023/08/29 01:54:58;;;;;;;1.10;1.10;;;21.70;62.40;;;;;;5075894;28;20277;-83
2023/08/29 01:57:26;;;;;;;1.25;1.20;;;21.70;61.60;;;;;;5075979;28;20210;-83
2023/08/29 01:59:53;;;;;;;1.27;1.20;;;21.70;61.60;;;;;;5075972;28;20201;-84
2023/08/29 02:02:22;;;;;;;0.98;0.98;;;21.60;61.60;;;;;;5075506;28;20712;-82
2023/08/29 02:04:49;;;;;;;1.27;1.20;;;21.70;61.60;;;;;;5076293;28;20199;-83
2023/08/29 02:07:16;;;;;;;1.10;1.10;;;21.60;61.50;;;;;;5077592;28;20654;-83
2023/08/29 02:09:43;;;;;;;1.20;1.10;;;21.70;61.70;;;;;;5078049;28;20201;-83
2023/08/29 02:12:10;;;;;;;1.10;1.10;;;21.60;61.60;;;;;;5078081;28;20219;-83
2023/08/29 02:14:37;;;;;;;1.10;1.10;;;21.70;61.70;;;;;;5076093;28;20199;-83
2023/08/29 02:17:04;;;;;;;1.40;1.30;;;21.60;61.60;;;;;;5075406;28;20268;-83
2023/08/29 02:19:33;;;;;;;1.20;1.20;;;21.60;61.60;;;;;;5076430;28;20570;-83
2023/08/29 02:22:00;;;;;;;1.10;1.08;;;21.60;61.60;;;;;;5075923;28;20261;-83
2023/08/29 02:24:27;;;;;;;1.30;1.20;;;21.60;61.50;;;;;;5075743;28;20290;-84
2023/08/29 02:26:54;;;;;;;1.50;1.20;;;21.60;61.60;;;;;;5075840;28;20563;-84
2023/08/29 02:29:21;;;;;;;1.95;1.20;;;21.60;61.60;;;;;;5076567;28;20293;-84
2023/08/29 02:31:48;;;;;;;1.10;1.10;;;21.60;61.60;;;;;;5078212;28;20214;-83
2023/08/29 02:34:15;;;;;;;1.40;1.30;;;21.60;61.60;;;;;;5078380;28;20198;-84
2023/08/29 02:36:44;;;;;;;1.23;1.13;;;21.60;61.60;;;;;;5078035;28;20228;-84
2023/08/29 02:39:11;;;;;;;1.10;1.10;;;21.60;61.60;;;;;;5078814;28;20246;-83
2023/08/29 02:41:38;;;;;;;1.20;1.10;;;21.60;61.70;;;;;;5079000;28;20640;-83
2023/08/29 02:44:05;;;;;;;1.48;1.40;;;21.60;61.70;;;;;;5078783;28;20195;-83
2023/08/29 02:46:32;;;;;;;1.20;1.20;;;21.60;61.70;;;;;;5079379;28;20221;-83
2023/08/29 02:48:59;;;;;;;1.20;1.10;;;21.60;61.70;;;;;;5079773;28;20290;-83
2023/08/29 02:51:27;;;;;;;1.20;1.20;;;21.60;61.70;;;;;;5079140;28;20693;-83
2023/08/29 02:53:55;;;;;;;1.50;1.40;;;21.60;61.80;;;;;;5062991;28;20199;-83
2023/08/29 02:56:22;;;;;;;1.10;1.10;;;21.50;61.70;;;;;;5078816;28;20202;-83
2023/08/29 02:58:50;;;;;;;1.23;1.20;;;21.60;61.80;;;;;;5079329;28;20225;-83
2023/08/29 03:01:17;;;;;;;1.33;1.23;;;21.60;61.80;;;;;;5079017;28;20238;-83
2023/08/29 03:03:45;;;;;;;1.30;1.20;;;21.60;61.70;;;;;;5079175;28;20190;-83
2023/08/29 03:06:12;;;;;;;1.33;1.17;;;21.60;61.70;;;;;;5079341;28;20229;-83
2023/08/29 03:08:39;;;;;;;1.20;1.17;;;21.60;61.60;;;;;;5075748;28;20191;-83
2023/08/29 03:11:08;;;;;;;1.35;1.20;;;21.60;61.50;;;;;;5078137;28;20218;-83
2023/08/29 03:13:35;;;;;;;1.38;1.27;;;21.60;61.40;;;;;;5075646;28;20195;-83
2023/08/29 03:16:02;;;;;;;1.20;1.20;;;21.60;61.40;;;;;;5075200;28;20305;-83
2023/08/29 03:18:29;;;;;;;1.50;1.40;;;21.60;61.40;;;;;;5077566;28;20222;-83
2023/08/29 03:21:00;;;;;;;1.27;1.27;;;21.60;61.40;;;;;;5082926;28;20219;-83
2023/08/29 03:23:29;;;;;;;1.30;1.20;;;21.60;61.30;;;;;;5074797;28;20225;-83
2023/08/29 03:26:03;;;;;;;1.27;1.20;;;21.60;61.30;;;;;;5075017;28;20300;-83
2023/08/29 03:28:31;;;;;;;1.20;1.20;;;21.70;61.40;;;;;;5074175;28;20187;-83
2023/08/29 03:31:08;;;;;;;2.17;1.20;;;21.60;61.20;;;;;;5058458;28;20256;-83
2023/08/29 03:33:35;;;;;;;1.20;1.20;;;21.70;61.20;;;;;;5074093;28;20281;-83
2023/08/29 03:36:02;;;;;;;1.35;1.25;;;21.70;61.10;;;;;;5074293;28;20248;-83
2023/08/29 03:38:29;;;;;;;1.20;1.20;;;21.70;61.00;;;;;;5073703;28;20554;-83
2023/08/29 03:40:57;;;;;;;1.67;1.20;;;21.70;61.00;;;;;;5072914;28;20654;-83
2023/08/29 03:43:27;;;;;;;1.33;1.20;;;21.70;60.80;;;;;;5073639;28;20237;-84
2023/08/29 03:45:58;;;;;;;1.10;1.10;;;21.80;60.90;;;;;;5073434;28;20297;-84
2023/08/29 03:48:26;;;;;;;1.75;1.25;;;21.80;60.80;;;;;;5073765;28;20187;-84
2023/08/29 03:50:54;;;;;;;1.20;1.20;;;21.80;60.80;;;;;;5073208;28;20234;-83
2023/08/29 03:53:22;;;;;;;1.25;1.10;;;21.80;60.80;;;;;;5073455;28;20218;-83
2023/08/29 03:55:50;;;;;;;1.02;1.02;;;21.80;60.70;;;;;;5073313;28;20203;-82
2023/08/29 03:58:17;;;;;;;1.50;1.10;;;21.70;60.50;;;;;;5072961;28;20261;-82
2023/08/29 04:00:45;;;;;;;1.40;1.30;;;21.80;60.60;;;;;;5072994;28;20314;-83
2023/08/29 04:03:13;;;;;;;1.20;1.20;;;21.80;60.60;;;;;;5056752;28;20266;-84
2023/08/29 04:05:41;;;;;;;1.35;1.25;;;21.80;60.60;;;;;;5073369;28;20203;-84
2023/08/29 04:08:10;;;;;;;1.80;1.30;;;21.80;60.60;;;;;;5052061;22;20233;-78
2023/08/29 04:10:38;;;;;;;1.58;1.40;;;21.80;60.50;;;;;;5011142;28;20692;-78
2023/08/29 04:13:06;;;;;;;1.25;1.17;;;21.80;60.60;;;;;;4994497;28;20288;-78
2023/08/29 04:15:33;;;;;;;1.10;1.10;;;21.80;60.50;;;;;;4994186;28;20197;-78
2023/08/29 04:18:00;;;;;;;1.20;1.10;;;21.80;60.50;;;;;;4994729;28;20225;-79
2023/08/29 04:20:29;;;;;;;1.48;1.38;;;21.80;60.50;;;;;;4995619;28;20268;-79
2023/08/29 04:22:58;;;;;;;1.45;1.30;;;21.90;60.50;;;;;;5011032;28;20193;-80
2023/08/29 04:25:26;;;;;;;1.40;1.30;;;21.90;60.50;;;;;;4995406;28;20712;-80
2023/08/29 04:27:53;;;;;;;1.20;1.20;;;21.80;60.40;;;;;;4978856;28;20673;-80
2023/08/29 04:30:21;;;;;;;1.45;1.17;;;21.90;60.40;;;;;;4993999;28;20251;-80
2023/08/29 04:32:48;;;;;;;1.80;1.30;;;21.90;60.40;;;;;;5010362;28;20201;-80
2023/08/29 04:35:16;;;;;;;1.85;1.30;;;21.80;60.40;;;;;;4994101;28;20284;-80
2023/08/29 04:37:47;;;;;;;1.25;1.15;;;21.90;60.40;;;;;;4994411;28;20271;-80
2023/08/29 04:40:14;;;;;;;2.33;1.50;;;21.80;60.40;;;;;;4993894;28;20264;-80
2023/08/29 04:42:41;;;;;;;1.45;1.35;;;21.80;60.40;;;;;;4994163;28;20200;-80
2023/08/29 04:45:09;;;;;;;1.63;1.45;;;21.90;60.60;;;;;;4994398;28;20201;-80
2023/08/29 04:47:36;;;;;;;2.78;1.35;;;21.80;60.60;;;;;;4994241;28;20194;-80
2023/08/29 04:50:04;;;;;;;1.40;1.30;;;21.90;60.80;;;;;;4994283;28;20197;-80
2023/08/29 04:52:31;;;;;;;1.90;1.40;;;21.90;60.70;;;;;;4978088;28;20217;-80
2023/08/29 04:55:00;;;;;;;1.88;1.40;;;21.80;60.80;;;;;;4994621;28;20209;-80
2023/08/29 04:57:27;;;;;;;1.50;1.30;;;21.90;61.20;;;;;;4994671;28;20208;-80
2023/08/29 04:59:56;;;;;;;1.60;1.50;;;21.90;61.40;;;;;;4978446;28;20257;-80
2023/08/29 05:02:23;;;;;;;2.85;1.27;;;21.90;61.70;;;;;;4994508;28;20221;-80
2023/08/29 05:04:52;;;;;;;2.20;1.40;;;21.90;61.70;;;;;;4978398;28;20209;-80
2023/08/29 05:07:19;;;;;;;1.52;1.30;;;21.90;61.60;;;;;;4993435;28;20237;-80
2023/08/29 05:09:47;;;;;;;1.58;1.40;;;21.90;61.50;;;;;;4994161;28;20201;-80
2023/08/29 05:12:16;;;;;;;1.40;1.30;;;21.90;61.10;;;;;;4994113;28;20230;-80
2023/08/29 05:14:43;;;;;;;1.58;1.27;;;21.90;61.10;;;;;;4994233;28;20562;-80
2023/08/29 05:17:11;;;;;;;1.50;1.40;;;21.80;60.90;;;;;;4982599;28;20201;-81
2023/08/29 05:19:38;;;;;;;1.45;1.35;;;21.90;60.10;;;;;;4995108;28;20639;-81
2023/08/29 05:22:05;;;;;;;2.70;1.65;;;21.90;59.70;;;;;;4995286;28;20248;-81
2023/08/29 05:24:33;;;;;;;1.77;1.40;;;21.80;59.40;;;;;;4994943;28;20221;-81
2023/08/29 05:27:00;;;;;;;1.77;1.67;;;21.80;59.20;;;;;;4995351;28;20300;-80
2023/08/29 05:29:29;;;;;;;3.33;1.50;;;21.80;59.20;;;;;;4996603;28;20716;-82
2023/08/29 05:31:56;;;;;;;1.55;1.45;;;21.80;59.00;;;;;;4980992;28;20217;-80
2023/08/29 05:34:23;;;;;;;1.98;1.50;;;21.80;59.00;;;;;;4983561;28;20213;-80
2023/08/29 05:36:50;;;;;;;1.65;1.48;;;21.80;58.90;;;;;;4996081;28;20211;-81
2023/08/29 05:39:17;;;;;;;2.45;1.60;;;21.80;58.90;;;;;;4999337;28;20221;-80
2023/08/29 05:41:45;;;;;;;1.70;1.60;;;21.80;59.50;;;;;;4997329;28;20702;-79
2023/08/29 05:44:12;;;;;;;2.42;1.50;;;21.80;59.30;;;;;;4994552;28;20292;-84
2023/08/29 05:46:41;;;;;;;2.50;1.50;;;21.80;59.50;;;;;;4997117;28;20661;-84
2023/08/29 05:49:08;;;;;;;1.52;1.40;;;21.70;59.70;;;;;;4997232;28;20198;-84
2023/08/29 05:51:35;;;;;;;1.30;1.25;;;21.70;59.60;;;;;;4994124;28;20563;-84
2023/08/29 05:54:02;;;;;;;1.70;1.58;;;21.80;59.80;;;;;;4994251;28;20198;-84
2023/08/29 05:56:30;;;;;;;1.60;1.50;;;21.70;59.80;;;;;;4994929;28;20204;-84
2023/08/29 05:58:57;;;;;;;1.80;1.70;;;21.70;59.70;;;;;;4994691;28;20227;-84
2023/08/29 06:01:24;;;;;;;1.65;1.48;;;21.70;59.80;;;;;;4993907;28;20225;-85
2023/08/29 06:03:53;;;;;;;1.40;1.30;;;21.70;59.70;;;;;;4996536;28;20197;-84
2023/08/29 06:06:21;;;;;;;1.85;1.50;;;21.80;59.80;;;;;;4998368;28;20276;-84
2023/08/29 06:08:48;;;;;;;1.95;1.55;;;21.80;59.80;;;;;;4998621;28;20212;-84
2023/08/29 06:11:15;;;;;;;1.50;1.40;;;21.80;59.80;;;;;;4998169;28;20217;-85
2023/08/29 06:13:42;;;;;;;2.38;1.40;;;21.80;59.90;;;;;;4996764;28;20313;-84
2023/08/29 06:16:09;;;;;;;1.48;1.38;;;21.80;59.80;;;;;;4997293;28;20248;-85
2023/08/29 06:18:36;;;;;;;1.77;1.52;;;21.70;59.70;;;;;;5013143;28;20217;-84
2023/08/29 06:21:05;;;;;;;2.53;1.35;;;21.80;59.80;;;;;;4997150;28;20283;-84
2023/08/29 06:23:32;;;;;;;1.40;1.30;;;21.80;59.70;;;;;;4997614;28;20197;-84
2023/08/29 06:25:59;;;;;;;1.50;1.40;;;21.80;59.70;;;;;;4996970;28;20664;-84
2023/08/29 06:28:27;;;;;;;1.95;1.60;;;21.80;59.70;;;;;;4996616;28;20198;-84
2023/08/29 06:30:54;;;;;;;1.75;1.63;;;21.80;59.60;;;;;;4997058;28;20320;-84
2023/08/29 06:33:21;;;;;;;1.52;1.40;;;21.80;59.50;;;;;;4981337;28;20197;-84
2023/08/29 06:35:49;;;;;;;1.60;1.50;;;21.80;59.50;;;;;;4996890;28;20208;-84
2023/08/29 06:38:17;;;;;;;1.95;1.60;;;21.90;59.60;;;;;;4996971;28;20193;-84
2023/08/29 06:40:44;;;;;;;1.83;1.52;;;21.90;59.50;;;;;;4996978;28;20598;-84
2023/08/29 06:43:12;;;;;;;1.60;1.50;;;21.90;59.50;;;;;;4996852;28;20194;-84
2023/08/29 06:45:39;;;;;;;1.45;1.35;;;21.90;59.50;;;;;;4997008;28;20205;-84
2023/08/29 06:48:06;;;;;;;2.92;1.60;;;21.90;59.40;;;;;;4997228;28;20215;-84
2023/08/29 06:50:34;;;;;;;1.88;1.50;;;21.90;59.40;;;;;;4997612;28;20611;-85
2023/08/29 06:53:01;;;;;;;1.60;1.48;;;21.90;59.30;;;;;;4996732;28;20201;-84
2023/08/29 06:55:31;;;;;;;2.08;1.45;;;22.00;59.40;;;;;;4996818;28;20204;-84
2023/08/29 06:57:59;;;;;;;1.75;1.65;;;22.00;59.30;;;;;;4997364;28;20186;-84
2023/08/29 07:00:26;;;;;;;1.42;1.30;;;22.00;59.30;;;;;;4996476;28;20249;-83
2023/08/29 07:02:53;;;;;;;2.15;1.83;;;22.00;59.30;;;;;;4996590;28;20212;-84
2023/08/29 07:05:20;;;;;;;2.30;1.70;;;22.00;59.30;;;;;;4995938;28;20291;-83
2023/08/29 07:07:47;;;;;;;1.50;1.50;;;22.00;59.30;;;;;;4995404;28;20680;-84
2023/08/29 07:10:15;;;;;;;1.80;1.70;;;22.00;59.40;;;;;;4995307;28;20197;-84
2023/08/29 07:12:43;;;;;;;2.45;1.50;;;22.00;59.30;;;;;;4995983;28;20260;-84
2023/08/29 07:15:10;;;;;;;1.83;1.70;;;22.00;59.30;;;;;;4996337;28;20208;-84
2023/08/29 07:17:37;;;;;;;2.60;1.60;;;22.00;59.40;;;;;;5022477;28;20239;-85
2023/08/29 07:20:08;;;;;;;2.22;1.90;;;22.00;59.30;;;;;;4994856;28;20228;-85
2023/08/29 07:22:37;;;;;;;1.90;1.80;;;22.00;59.40;;;;;;4979862;28;20201;-85
2023/08/29 07:25:05;;;;;;;2.00;1.70;;;22.00;59.30;;;;;;4996016;28;20197;-84
2023/08/29 07:27:32;;;;;;;2.88;1.67;;;22.00;59.30;;;;;;4995290;28;20244;-85
2023/08/29 07:30:01;;;;;;;1.83;1.60;;;22.10;59.30;;;;;;4995820;28;20293;-85
2023/08/29 07:32:28;;;;;;;1.63;1.52;;;22.00;59.30;;;;;;4995445;28;20198;-85
2023/08/29 07:34:56;;;;;;;1.50;1.40;;;22.10;59.30;;;;;;4995505;28;20202;-85
2023/08/29 07:37:23;;;;;;;1.75;1.65;;;22.10;60.00;;;;;;4996586;28;20194;-84
2023/08/29 07:39:51;;;;;;;1.63;1.52;;;22.10;59.40;;;;;;4996382;28;20287;-85
2023/08/29 07:42:18;;;;;;;1.63;1.52;;;22.10;59.50;;;;;;5008050;28;20225;-84
2023/08/29 07:44:45;;;;;;;1.90;1.70;;;22.00;59.40;;;;;;5015096;28;20205;-84
2023/08/29 07:47:14;;;;;;;1.70;1.60;;;22.00;59.40;;;;;;5015025;28;20220;-84
2023/08/29 07:49:41;;;;;;;2.08;1.70;;;22.00;59.50;;;;;;5010119;28;20232;-85
2023/08/29 07:52:09;;;;;;;2.35;1.60;;;22.00;59.50;;;;;;5002997;28;20232;-84
2023/08/29 07:54:37;;;;;;;1.80;1.70;;;22.00;59.50;;;;;;4985966;28;20573;-86
2023/08/29 07:57:04;;;;;;;1.80;1.70;;;22.00;59.50;;;;;;4998546;28;20220;-86
2023/08/29 07:59:31;;;;;;;2.05;1.60;;;22.00;59.60;;;;;;5001535;28;20237;-84
2023/08/29 08:01:58;;;;;;;3.67;1.80;;;22.00;59.60;;;;;;5000497;28;20280;-84
2023/08/29 08:04:27;;;;;;;2.70;1.80;;;22.00;59.60;;;;;;4994774;28;20205;-84
2023/08/29 08:06:54;;;;;;;2.25;1.73;;;22.00;59.70;;;;;;4994534;28;20201;-83
2023/08/29 08:09:21;;;;;;;2.65;1.63;;;22.00;59.60;;;;;;4994881;28;20256;-84
2023/08/29 08:11:48;;;;;;;2.13;1.98;;;22.00;59.60;;;;;;4999193;28;20224;-84
2023/08/29 08:14:17;;;;;;;1.83;1.73;;;22.00;59.60;;;;;;4999694;28;20288;-84
2023/08/29 08:16:44;;;;;;;1.98;1.60;;;22.00;59.60;;;;;;4999243;28;20213;-84
2023/08/29 08:19:11;;;;;;;2.42;1.73;;;22.00;59.60;;;;;;4998759;28;20307;-84
2023/08/29 08:21:40;;;;;;;2.65;1.88;;;22.10;59.70;;;;;;4998376;28;20284;-84
2023/08/29 08:24:08;;;;;;;1.90;1.80;;;22.00;59.50;;;;;;4998769;28;20197;-84
2023/08/29 08:26:35;;;;;;;1.98;1.88;;;22.10;59.60;;;;;;4997988;28;20207;-84
2023/08/29 08:29:04;;;;;;;1.95;1.70;;;22.10;59.50;;;;;;4999316;28;20194;-84
2023/08/29 08:31:31;;;;;;;1.65;1.55;;;22.10;59.60;;;;;;4998407;28;20221;-84
2023/08/29 08:33:58;;;;;;;1.77;1.67;;;22.10;59.50;;;;;;4998735;28;20205;-84
2023/08/29 08:36:25;;;;;;;2.00;1.80;;;22.10;59.50;;;;;;4997932;28;20197;-84
2023/08/29 08:38:53;;;;;;;2.10;1.70;;;22.10;59.40;;;;;;4997449;28;20220;-83
2023/08/29 08:41:21;;;;;;;2.00;1.65;;;22.10;59.50;;;;;;4997032;28;20304;-84
2023/08/29 08:43:47;;;;;;;1.98;1.80;;;22.10;59.40;;;;;;4997122;28;20639;-84
2023/08/29 08:46:15;;;;;;;1.70;1.52;;;22.20;59.50;;;;;;4997008;28;20208;-84
2023/08/29 08:48:43;;;;;;;2.60;1.80;;;22.20;59.40;;;;;;4997512;28;20205;-84
2023/08/29 08:51:10;;;;;;;1.80;1.70;;;22.30;59.40;;;;;;4996708;28;20217;-84
2023/08/29 08:53:37;;;;;;;1.90;1.80;;;22.20;59.20;;;;;;4997404;28;20205;-84
2023/08/29 08:56:08;;;;;;;2.30;2.10;;;22.30;59.20;;;;;;4980077;28;20604;-84
2023/08/29 08:58:36;;;;;;;1.98;1.80;;;22.30;59.20;;;;;;4994844;28;20645;-84
2023/08/29 09:01:03;;;;;;;1.90;1.80;;;22.30;59.20;;;;;;4993729;28;20229;-84
2023/08/29 09:03:31;;;;;;;1.70;1.60;;;22.30;59.10;;;;;;4993926;28;20205;-84
2023/08/29 09:05:57;;;;;;;2.03;1.83;;;22.30;59.10;;;;;;4977586;28;20198;-84
2023/08/29 09:08:25;;;;;;;3.13;2.00;;;22.30;59.00;;;;;;4994111;28;20627;-84
2023/08/29 09:10:53;;;;;;;2.78;2.00;;;22.40;59.00;;;;;;4994109;28;20692;-84
2023/08/29 09:13:22;;;;;;;1.90;1.80;;;22.40;58.90;;;;;;4994461;28;20216;-84
2023/08/29 09:15:49;;;;;;;2.50;1.90;;;22.40;58.90;;;;;;4993811;28;20213;-83
2023/08/29 09:18:24;;;;;;;1.90;1.80;;;22.40;58.80;;;;;;4994696;28;20197;-84
2023/08/29 09:20:51;;;;;;;2.10;1.65;;;22.40;58.80;;;;;;4978045;28;20229;-84
2023/08/29 09:23:22;;;;;;;2.03;1.70;;;22.40;58.80;;;;;;4994319;28;20216;-84
2023/08/29 09:25:55;;;;;;;2.47;1.80;;;22.50;58.80;;;;;;4993774;28;20209;-83
2023/08/29 09:28:29;;;;;;;2.00;1.80;;;22.50;58.80;;;;;;4993690;28;20724;-83
2023/08/29 09:30:57;;;;;;;2.10;1.90;;;22.50;58.80;;;;;;4993427;28;20644;-83
2023/08/29 09:33:23;;;;;;;1.92;1.70;;;22.50;58.80;;;;;;4993501;28;20300;-83
2023/08/29 09:35:51;;;;;;;2.53;1.92;;;22.50;58.70;;;;;;4993330;28;20205;-83
2023/08/29 09:38:19;;;;;;;2.08;1.75;;;22.50;58.70;;;;;;4995525;28;20205;-84
2023/08/29 09:40:46;;;;;;;1.73;1.63;;;22.60;58.60;;;;;;4997376;28;20229;-84
2023/08/29 09:43:14;;;;;;;2.10;1.90;;;22.60;58.60;;;;;;4997735;28;20284;-84
2023/08/29 09:45:43;;;;;;;1.73;1.63;;;22.60;58.50;;;;;;4998349;28;20569;-84
2023/08/29 09:48:10;;;;;;;3.22;1.92;;;22.60;58.60;;;;;;4998311;28;20260;-84
2023/08/29 09:50:37;;;;;;;1.83;1.70;;;22.60;58.60;;;;;;4998226;28;20221;-84
2023/08/29 09:53:05;;;;;;;2.10;1.70;;;22.60;58.60;;;;;;4998527;28;20197;-84
2023/08/29 09:55:34;;;;;;;2.00;1.80;;;22.50;58.60;;;;;;5013516;28;20189;-84
2023/08/29 09:58:02;;;;;;;2.17;1.80;;;22.50;58.60;;;;;;4997565;28;20205;-84
2023/08/29 10:00:29;;;;;;;2.00;1.80;;;22.50;58.60;;;;;;4997030;28;20228;-84
2023/08/29 10:02:58;;;;;;;2.05;1.88;;;22.50;58.60;;;;;;4997511;28;20614;-83
2023/08/29 10:05:26;;;;;;;2.40;1.77;;;22.60;58.70;;;;;;4997338;28;20284;-83
2023/08/29 10:07:56;;;;;;;2.53;1.60;;;22.50;58.70;;;;;;4997348;28;20582;-83
2023/08/29 10:10:23;;;;;;;1.92;1.73;;;22.50;58.70;;;;;;4997128;28;20221;-83
2023/08/29 10:12:50;;;;;;;1.80;1.70;;;22.60;58.70;;;;;;4996712;28;20664;-83
2023/08/29 10:15:18;;;;;;;2.55;1.70;;;22.50;58.70;;;;;;4997023;28;20233;-84
2023/08/29 10:17:45;;;;;;;2.13;1.92;;;22.50;58.70;;;;;;4996769;28;20202;-84
2023/08/29 10:20:14;;;;;;;1.88;1.77;;;22.50;58.70;;;;;;4996264;28;20279;-83
2023/08/29 10:22:45;;;;;;;2.22;2.00;;;22.50;58.70;;;;;;4996640;28;20232;-84
2023/08/29 10:25:13;;;;;;;2.55;1.95;;;22.50;58.70;;;;;;4996547;28;20200;-83
2023/08/29 10:27:40;;;;;;;1.75;1.65;;;22.50;58.70;;;;;;4996716;28;20228;-84
2023/08/29 10:30:09;;;;;;;1.65;1.55;;;22.60;58.70;;;;;;4996672;28;20193;-84
2023/08/29 10:32:36;;;;;;;2.45;1.90;;;22.60;58.60;;;;;;4996552;28;20683;-84
2023/08/29 10:35:03;;;;;;;1.80;1.70;;;22.60;58.40;;;;;;4996273;28;20202;-84
2023/08/29 10:37:32;;;;;;;1.70;1.60;;;22.70;58.50;;;;;;4996397;28;20560;-84
2023/08/29 10:40:09;;;;;;;2.50;1.60;;;22.70;58.50;;;;;;4996133;28;20221;-84
2023/08/29 10:42:52;;;;;;;1.95;1.73;;;22.80;58.50;;;;;;4997012;28;20205;-83
2023/08/29 10:45:21;;;;;;;1.85;1.75;;;22.70;58.30;;;;;;4996434;28;20201;-84
2023/08/29 10:47:48;;;;;;;2.10;1.98;;;22.80;58.20;;;;;;4996226;28;20597;-84
2023/08/29 10:50:21;;;;;;;2.10;1.90;;;22.90;58.10;;;;;;4996124;28;20201;-84
2023/08/29 10:52:54;;;;;;;1.92;1.70;;;22.90;57.90;;;;;;4997260;28;20205;-85
2023/08/29 10:55:23;;;;;;;1.77;1.67;;;23.00;57.70;;;;;;5005116;28;20296;-84
2023/08/29 10:57:51;;;;;;;1.70;1.60;;;23.00;57.60;;;;;;4995615;28;20233;-84
2023/08/29 11:00:20;;;;;;;2.28;1.90;;;23.10;57.60;;;;;;4995469;28;20699;-85
2023/08/29 11:02:48;;;;;;;1.80;1.70;;;23.10;57.50;;;;;;4996531;28;20198;-84
2023/08/29 11:05:16;;;;;;;2.33;1.70;;;23.10;57.50;;;;;;4996279;28;20201;-84
2023/08/29 11:07:43;;;;;;;1.50;1.40;;;23.10;57.50;;;;;;4980046;28;20210;-84
2023/08/29 11:10:20;;;;;;;1.83;1.70;;;23.10;57.60;;;;;;4995130;28;20236;-84
2023/08/29 11:13:07;;;;;;;2.42;1.70;;;23.10;57.60;;;;;;4995437;28;20287;-84
2023/08/29 11:16:06;;;;;;;2.35;2.00;;;23.10;57.70;;;;;;4995310;28;20628;-84
2023/08/29 11:18:33;;;;;;;1.75;1.58;;;23.10;57.70;;;;;;4995477;28;20640;-84
2023/08/29 11:21:05;;;;;;;2.00;1.90;;;23.10;57.70;;;;;;4995983;28;20229;-84
2023/08/29 11:23:35;;;;;;;1.88;1.77;;;23.10;57.80;;;;;;4996030;28;20200;-84
2023/08/29 11:26:04;;;;;;;1.92;1.83;;;23.10;57.80;;;;;;4995323;28;20189;-84
2023/08/29 11:28:33;;;;;;;2.38;1.80;;;23.10;57.80;;;;;;4997328;28;20209;-85
2023/08/29 11:31:00;;;;;;;1.80;1.70;;;23.10;57.90;;;;;;4995584;28;20252;-85
2023/08/29 11:33:31;;;;;;;3.70;1.58;;;23.10;57.90;;;;;;4995649;28;20281;-85
2023/08/29 11:36:00;;;;;;;2.20;1.70;;;23.10;57.90;;;;;;4995777;28;20201;-85
2023/08/29 11:38:29;;;;;;;2.00;1.80;;;23.10;57.80;;;;;;4995335;28;20201;-85
2023/08/29 11:40:56;;;;;;;1.75;1.65;;;23.10;57.80;;;;;;4995750;28;20229;-85
2023/08/29 11:43:25;;;;;;;1.75;1.65;;;23.10;57.90;;;;;;4995731;28;20637;-84
2023/08/29 11:45:53;;;;;;;1.70;1.60;;;23.10;58.40;;;;;;5001209;28;20640;-84
2023/08/29 11:48:24;;;;;;;2.00;1.90;;;23.10;57.80;;;;;;4995943;28;20305;-84
2023/08/29 11:50:55;;;;;;;1.90;1.80;;;23.00;57.80;;;;;;4996580;28;20225;-84
2023/08/29 11:53:29;;;;;;;1.83;1.73;;;23.10;57.90;;;;;;4999311;28;20268;-83
2023/08/29 11:55:56;;;;;;;1.85;1.75;;;23.00;57.80;;;;;;4995831;28;20205;-84
2023/08/29 11:58:32;;;;;;;1.83;1.73;;;23.10;57.90;;;;;;4996125;28;20686;-84
2023/08/29 12:01:01;;;;;;;2.10;1.90;;;23.10;57.90;;;;;;4994902;28;20228;-84
2023/08/29 12:03:28;;;;;;;1.88;1.75;;;23.10;57.90;;;;;;4995813;28;20619;-84
2023/08/29 12:05:59;;;;;;;1.70;1.60;;;23.10;57.90;;;;;;4995753;28;20657;-84
2023/08/29 12:08:39;;;;;;;2.35;1.95;;;23.10;57.90;;;;;;4996209;28;20205;-84
2023/08/29 12:11:07;;;;;;;1.70;1.60;;;23.10;57.90;;;;;;4997130;28;20225;-84
2023/08/29 12:13:36;;;;;;;1.75;1.65;;;23.10;57.90;;;;;;4995812;28;20244;-84
2023/08/29 12:16:04;;;;;;;1.92;1.70;;;23.10;57.90;;;;;;4996252;28;20272;-84
2023/08/29 12:18:33;;;;;;;2.33;2.00;;;23.10;57.80;;;;;;4996132;28;20327;-84
2023/08/29 12:21:20;;;;;;;1.83;1.73;;;23.20;57.90;;;;;;4995717;28;20280;-84
2023/08/29 12:23:47;;;;;;;2.22;1.98;;;23.20;57.90;;;;;;4995960;28;20197;-84
2023/08/29 12:26:14;;;;;;;1.98;1.80;;;23.20;57.80;;;;;;4996331;28;20200;-84
2023/08/29 12:28:43;;;;;;;2.65;1.70;;;23.20;57.80;;;;;;4980118;28;20216;-84
2023/08/29 12:31:10;;;;;;;3.47;1.85;;;23.10;57.70;;;;;;4996052;28;20268;-84
2023/08/29 12:33:37;;;;;;;1.92;1.83;;;23.20;57.80;;;;;;4995651;28;20256;-85
2023/08/29 12:36:04;;;;;;;1.98;1.70;;;23.20;57.80;;;;;;4995914;28;20582;-85
2023/08/29 12:38:32;;;;;;;2.03;1.85;;;23.20;57.70;;;;;;4996582;28;20257;-84
2023/08/29 12:40:59;;;;;;;1.80;1.70;;;23.30;57.80;;;;;;4995921;28;20252;-85
2023/08/29 12:43:26;;;;;;;1.80;1.70;;;23.30;57.80;;;;;;4993913;28;20201;-84
2023/08/29 12:45:54;;;;;;;1.80;1.70;;;23.30;57.80;;;;;;4994616;28;20204;-84
2023/08/29 12:48:21;;;;;;;2.00;1.80;;;23.30;57.70;;;;;;4994986;28;20201;-85
2023/08/29 12:50:48;;;;;;;2.20;1.95;;;23.30;57.70;;;;;;5000334;28;20280;-84
2023/08/29 12:53:17;;;;;;;2.00;1.90;;;23.30;57.70;;;;;;4984610;28;20193;-84